Time;durP1;ratioP1;P1;durP2;ratioP2;P2;SDS_P1;SDS_P2;PMS_P1;PMS_P2;Temp;Humidity;BMP_temperature;BMP_pressure;BME280_temperature;BME280_humidity;BME280_pressure;Samples;Min_cycle;Max_cycle;Signal;HPM_P1;HPM_P2
2022/01/02 00:00:48;;;;;;;;;;;12.80;99.90;;;;;;5009243;28;20015;-71
2022/01/02 00:03:35;;;;;;;;;;;12.80;99.90;;;;;;5009464;28;19929;-71
2022/01/02 00:06:25;;;;;;;;;;;12.80;99.90;;;;;;5021063;28;19932;-71
2022/01/02 00:09:12;;;;;;;;;;;12.80;99.90;;;;;;5008990;28;19932;-71
2022/01/02 00:12:02;;;;;;;;;;;12.80;99.90;;;;;;5026983;28;20401;-72
2022/01/02 00:14:51;;;;;;;;;;;12.80;99.90;;;;;;5034216;28;19952;-71
2022/01/02 00:17:38;;;;;;;;;;;12.80;99.90;;;;;;5027134;28;19936;-72
2022/01/02 00:20:32;;;;;;;;;;;12.70;99.90;;;;;;5027135;28;19980;-71
2022/01/02 00:23:23;;;;;;;;;;;12.70;99.90;;;;;;5027705;28;19924;-71
2022/01/02 00:26:15;;;;;;;;;;;12.80;99.90;;;;;;5028250;28;20310;-71
2022/01/02 00:29:05;;;;;;;;;;;12.70;99.90;;;;;;5027106;28;19921;-72
2022/01/02 00:31:54;;;;;;;;;;;12.80;99.90;;;;;;5033865;28;19945;-72
2022/01/02 00:34:40;;;;;;;;;;;12.80;99.90;;;;;;5026872;28;20484;-71
2022/01/02 00:37:27;;;;;;;;;;;12.80;99.90;;;;;;5011411;28;19944;-71
2022/01/02 00:40:14;;;;;;;;;;;12.80;99.90;;;;;;5008420;28;19925;-72
2022/01/02 00:43:02;;;;;;;;;;;12.80;99.90;;;;;;5019990;28;20284;-73
2022/01/02 00:45:49;;;;;;;;;;;12.80;99.90;;;;;;5030353;28;19932;-72
2022/01/02 00:48:38;;;;;;;;;;;12.80;99.90;;;;;;5027546;28;19936;-71
2022/01/02 00:51:28;;;;;;;;;;;12.90;99.90;;;;;;5033176;28;19928;-72
2022/01/02 00:54:16;;;;;;;;;;;12.90;99.90;;;;;;5007964;28;19932;-72
2022/01/02 00:57:08;;;;;;;;;;;12.90;99.90;;;;;;5023473;28;20270;-71
2022/01/02 01:00:01;;;;;;;;;;;12.90;99.90;;;;;;5040559;28;19932;-71
2022/01/02 01:02:53;;;;;;;;;;;12.90;99.90;;;;;;5013085;28;20008;-72
2022/01/02 01:05:40;;;;;;;;;;;12.90;99.90;;;;;;5012045;28;19932;-71
2022/01/02 01:08:29;;;;;;;;;;;12.90;99.90;;;;;;5007075;28;19932;-72
2022/01/02 01:11:15;;;;;;;;;;;12.90;99.90;;;;;;5020845;28;19922;-72
2022/01/02 01:14:01;;;;;;;;;;;12.90;99.90;;;;;;5012677;28;19932;-73
2022/01/02 01:16:47;;;;;;;;;;;12.90;99.90;;;;;;5006434;28;19944;-71
2022/01/02 01:19:38;;;;;;;;;;;12.90;99.90;;;;;;5013251;28;19933;-71
2022/01/02 01:22:24;;;;;;;;;;;12.90;99.90;;;;;;5028775;28;19925;-71
2022/01/02 01:25:16;;;;;;;;;;;12.80;99.90;;;;;;5032759;28;19928;-71
2022/01/02 01:28:02;;;;;;;;;;;12.80;99.90;;;;;;5025795;28;19932;-72
2022/01/02 01:30:50;;;;;;;;;;;12.80;99.90;;;;;;5032531;28;19921;-71
2022/01/02 01:33:35;;;;;;;;;;;12.80;99.90;;;;;;5018459;28;20404;-71
2022/01/02 01:36:22;;;;;;;;;;;12.80;99.90;;;;;;5023068;28;19933;-71
2022/01/02 01:39:08;;;;;;;;;;;12.80;99.90;;;;;;5021082;28;20301;-72
2022/01/02 01:41:55;;;;;;;;;;;12.70;99.90;;;;;;5012700;28;19948;-72
2022/01/02 01:47:33;;;;;;;;;;;12.70;99.90;;;;;;5012753;28;19932;-71
2022/01/02 01:50:22;;;;;;;;;;;12.70;99.90;;;;;;5012364;28;19931;-72
2022/01/02 01:53:08;;;;;;;;;;;12.70;99.90;;;;;;5012236;28;19932;-72
2022/01/02 01:55:56;;;;;;;;;;;12.70;99.90;;;;;;5007513;28;19925;-72
2022/01/02 01:58:44;;;;;;;;;;;12.70;99.90;;;;;;5012779;28;19928;-72
2022/01/02 02:01:31;;;;;;;;;;;12.70;99.90;;;;;;5012759;28;19932;-72
2022/01/02 02:04:17;;;;;;;;;;;12.70;99.90;;;;;;5016994;28;19928;-71
2022/01/02 02:07:03;;;;;;;;;;;12.70;99.90;;;;;;5024258;28;19925;-71
2022/01/02 02:10:09;;;;;;;;;;;12.70;99.90;;;;;;5036086;28;20364;-72
2022/01/02 02:12:57;;;;;;;;;;;12.70;99.90;;;;;;5006146;28;19921;-71
2022/01/02 02:15:46;;;;;;;;;;;12.70;99.90;;;;;;5016536;28;19935;-72
2022/01/02 02:18:34;;;;;;;;;;;12.70;99.90;;;;;;5027076;28;20392;-72
2022/01/02 02:21:28;;;;;;;;;;;12.70;99.90;;;;;;5031786;28;19932;-71
2022/01/02 02:24:14;;;;;;;;;;;12.70;99.90;;;;;;5028500;28;19932;-72
2022/01/02 02:27:00;;;;;;;;;;;12.70;99.90;;;;;;5016516;28;19945;-71
2022/01/02 02:29:46;;;;;;;;;;;12.70;99.90;;;;;;5011676;28;19928;-71
2022/01/02 02:32:37;;;;;;;;;;;12.70;99.90;;;;;;5012093;28;20389;-72
2022/01/02 02:35:24;;;;;;;;;;;12.60;99.90;;;;;;5020262;28;19932;-72
2022/01/02 02:38:10;;;;;;;;;;;12.60;99.90;;;;;;5014474;28;19932;-71
2022/01/02 02:40:58;;;;;;;;;;;12.50;99.90;;;;;;5028494;28;20404;-71
2022/01/02 02:43:55;;;;;;;;;;;12.40;99.90;;;;;;5032040;28;19928;-71
2022/01/02 02:49:47;;;;;;;;;;;12.30;99.90;;;;;;5026687;28;19931;-71
2022/01/02 02:52:44;;;;;;;;;;;12.30;99.90;;;;;;5031513;28;19928;-71
2022/01/02 02:55:41;;;;;;;;;;;12.30;99.90;;;;;;5016381;28;19928;-71
2022/01/02 03:01:20;;;;;;;;;;;12.20;99.90;;;;;;5031918;28;19986;-71
2022/01/02 03:04:07;;;;;;;;;;;12.20;99.90;;;;;;5032424;28;20289;-71
2022/01/02 03:06:54;;;;;;;;;;;12.20;99.90;;;;;;5006744;28;19960;-71
2022/01/02 03:09:47;;;;;;;;;;;12.10;99.90;;;;;;5016612;28;20767;-71
2022/01/02 03:12:34;;;;;;;;;;;12.10;99.90;;;;;;5031782;28;19932;-71
2022/01/02 03:15:20;;;;;;;;;;;12.10;99.90;;;;;;5026222;28;19928;-71
2022/01/02 03:18:07;;;;;;;;;;;12.10;99.90;;;;;;5026764;28;19929;-71
2022/01/02 03:20:53;;;;;;;;;;;12.10;99.90;;;;;;5026597;28;19936;-71
2022/01/02 03:23:40;;;;;;;;;;;12.10;99.90;;;;;;5062862;28;19935;-71
2022/01/02 03:26:26;;;;;;;;;;;12.10;99.90;;;;;;5035180;28;19924;-71
2022/01/02 03:29:12;;;;;;;;;;;12.10;99.90;;;;;;5029775;28;19936;-71
2022/01/02 03:31:58;;;;;;;;;;;12.10;99.90;;;;;;5035046;28;19932;-71
2022/01/02 03:34:44;;;;;;;;;;;12.10;99.90;;;;;;5035149;28;19924;-71
2022/01/02 03:37:33;;;;;;;;;;;12.10;99.90;;;;;;5034641;28;20389;-71
2022/01/02 03:40:19;;;;;;;;;;;12.10;99.90;;;;;;5029366;28;19952;-71
2022/01/02 03:43:06;;;;;;;;;;;12.10;99.90;;;;;;5029677;28;20314;-71
2022/01/02 03:45:53;;;;;;;;;;;12.10;99.90;;;;;;5001443;28;20302;-71
2022/01/02 03:48:40;;;;;;;;;;;12.10;99.90;;;;;;5043047;28;19929;-71
2022/01/02 03:51:28;;;;;;;;;;;12.10;99.90;;;;;;5015361;28;20281;-71
2022/01/02 03:54:14;;;;;;;;;;;12.10;99.90;;;;;;5028889;28;19944;-71
2022/01/02 03:57:01;;;;;;;;;;;12.20;99.90;;;;;;5008905;28;19933;-71
2022/01/02 03:59:49;;;;;;;;;;;12.10;99.90;;;;;;5014973;28;20313;-71
2022/01/02 04:02:37;;;;;;;;;;;12.20;99.90;;;;;;5015257;28;19987;-71
2022/01/02 04:05:24;;;;;;;;;;;12.20;99.90;;;;;;5019093;28;19952;-70
2022/01/02 04:08:10;;;;;;;;;;;12.20;99.90;;;;;;5014673;28;20379;-71
2022/01/02 04:10:57;;;;;;;;;;;12.20;99.90;;;;;;5028676;28;19932;-71
2022/01/02 04:13:43;;;;;;;;;;;12.20;99.90;;;;;;5008517;28;20285;-71
2022/01/02 04:16:30;;;;;;;;;;;12.20;99.90;;;;;;5014675;28;19933;-71
2022/01/02 04:19:16;;;;;;;;;;;12.10;99.90;;;;;;5010371;28;19933;-71
2022/01/02 04:22:02;;;;;;;;;;;12.10;99.90;;;;;;5014684;28;19951;-71
2022/01/02 04:24:49;;;;;;;;;;;12.10;99.90;;;;;;5019822;28;20365;-71
2022/01/02 04:27:36;;;;;;;;;;;12.10;99.90;;;;;;5033965;28;19975;-73
2022/01/02 04:30:22;;;;;;;;;;;12.10;99.90;;;;;;5034378;28;19928;-71
2022/01/02 04:33:08;;;;;;;;;;;12.10;99.90;;;;;;5027473;28;20352;-71
2022/01/02 04:35:54;;;;;;;;;;;12.10;99.90;;;;;;5023068;28;19926;-71
2022/01/02 04:38:42;;;;;;;;;;;12.10;99.90;;;;;;5023729;28;19948;-71
2022/01/02 04:41:28;;;;;;;;;;;12.10;99.90;;;;;;5020474;28;20357;-71
2022/01/02 04:44:15;;;;;;;;;;;12.10;99.90;;;;;;5029708;28;20362;-71
2022/01/02 04:47:01;;;;;;;;;;;12.10;99.90;;;;;;5061463;28;19973;-71
2022/01/02 04:49:49;;;;;;;;;;;12.10;99.90;;;;;;5027221;28;19983;-71
2022/01/02 04:52:35;;;;;;;;;;;12.10;99.90;;;;;;5033638;28;19929;-71
2022/01/02 04:55:22;;;;;;;;;;;12.10;99.90;;;;;;5033449;28;19968;-71
2022/01/02 04:58:08;;;;;;;;;;;12.10;99.90;;;;;;5027636;28;19926;-71
2022/01/02 05:00:55;;;;;;;;;;;12.10;99.90;;;;;;5009706;28;20401;-71
2022/01/02 05:03:42;;;;;;;;;;;12.10;99.90;;;;;;5007771;28;19932;-71
2022/01/02 05:06:30;;;;;;;;;;;12.10;99.90;;;;;;5029723;28;19932;-71
2022/01/02 05:09:16;;;;;;;;;;;12.10;99.90;;;;;;5033067;28;19920;-71
2022/01/02 05:12:03;;;;;;;;;;;12.10;99.90;;;;;;5033432;28;20583;-71
2022/01/02 05:14:49;;;;;;;;;;;12.10;99.90;;;;;;5033546;28;19932;-71
2022/01/02 05:17:36;;;;;;;;;;;12.10;99.90;;;;;;5042343;28;19924;-72
2022/01/02 05:20:22;;;;;;;;;;;12.10;99.90;;;;;;5035288;28;19928;-71
2022/01/02 05:23:08;;;;;;;;;;;12.10;99.90;;;;;;5013078;28;19925;-70
2022/01/02 05:25:56;;;;;;;;;;;12.10;99.90;;;;;;5013177;28;19925;-71
2022/01/02 05:28:43;;;;;;;;;;;12.10;99.90;;;;;;5026812;28;19932;-71
2022/01/02 05:31:30;;;;;;;;;;;12.10;99.90;;;;;;5013083;28;19930;-70
2022/01/02 05:34:17;;;;;;;;;;;12.00;99.90;;;;;;5013417;28;19932;-71
2022/01/02 05:37:04;;;;;;;;;;;12.00;99.90;;;;;;5013043;28;20297;-70
2022/01/02 05:39:52;;;;;;;;;;;11.90;99.90;;;;;;5010043;28;19940;-71
2022/01/02 05:42:38;;;;;;;;;;;11.90;99.90;;;;;;5030949;28;20396;-70
2022/01/02 05:45:24;;;;;;;;;;;11.80;99.90;;;;;;5031294;28;19955;-70
2022/01/02 05:48:10;;;;;;;;;;;11.70;99.90;;;;;;5026733;28;19932;-71
2022/01/02 05:50:59;;;;;;;;;;;11.60;99.90;;;;;;5026513;28;19940;-70
2022/01/02 05:53:45;;;;;;;;;;;11.60;99.90;;;;;;5031850;28;20289;-70
2022/01/02 05:56:32;;;;;;;;;;;11.50;99.90;;;;;;5026758;28;19980;-71
2022/01/02 05:59:18;;;;;;;;;;;11.50;99.90;;;;;;5032508;28;20303;-70
2022/01/02 06:02:04;;;;;;;;;;;11.50;99.90;;;;;;5053557;28;19932;-70
2022/01/02 06:04:50;;;;;;;;;;;11.40;99.90;;;;;;5026200;28;19992;-71
2022/01/02 06:07:36;;;;;;;;;;;11.40;99.90;;;;;;5026523;28;19932;-70
2022/01/02 06:10:24;;;;;;;;;;;11.40;99.90;;;;;;5018357;28;19932;-71
2022/01/02 06:13:10;;;;;;;;;;;11.40;99.90;;;;;;5029334;28;19944;-71
2022/01/02 06:15:56;;;;;;;;;;;11.40;99.90;;;;;;5031856;28;19932;-70
2022/01/02 06:18:42;;;;;;;;;;;11.30;99.90;;;;;;5053866;28;19943;-72
2022/01/02 06:21:28;;;;;;;;;;;11.40;99.90;;;;;;5043943;28;19925;-71
2022/01/02 06:24:14;;;;;;;;;;;11.30;99.90;;;;;;5045955;28;19932;-71
2022/01/02 06:27:00;;;;;;;;;;;11.30;99.90;;;;;;5025274;28;19940;-71
2022/01/02 06:29:47;;;;;;;;;;;11.30;99.90;;;;;;5032113;28;19952;-70
2022/01/02 06:32:33;;;;;;;;;;;11.40;99.90;;;;;;5025873;28;20381;-71
2022/01/02 06:35:19;;;;;;;;;;;11.30;99.90;;;;;;5018977;28;19947;-71
2022/01/02 06:38:12;;;;;;;;;;;11.40;99.90;;;;;;5043192;28;19929;-71
2022/01/02 06:41:00;;;;;;;;;;;11.40;99.90;;;;;;5031964;28;20297;-71
2022/01/02 06:43:52;;;;;;;;;;;11.40;99.90;;;;;;5031008;28;20369;-71
2022/01/02 06:46:40;;;;;;;;;;;11.50;99.90;;;;;;5031560;28;19932;-71
2022/01/02 06:49:26;;;;;;;;;;;11.50;99.90;;;;;;5026074;28;19932;-71
2022/01/02 06:52:13;;;;;;;;;;;11.50;99.90;;;;;;5031816;28;19947;-71
2022/01/02 06:54:59;;;;;;;;;;;11.50;99.90;;;;;;5026536;28;20014;-71
2022/01/02 06:57:46;;;;;;;;;;;11.50;99.90;;;;;;5033798;28;19947;-71
2022/01/02 07:00:35;;;;;;;;;;;11.50;99.90;;;;;;5021713;28;19928;-70
2022/01/02 07:03:26;;;;;;;;;;;11.50;99.90;;;;;;5032317;28;19931;-71
2022/01/02 07:06:12;;;;;;;;;;;11.40;99.90;;;;;;5021179;28;20036;-71
2022/01/02 07:08:58;;;;;;;;;;;11.50;99.90;;;;;;5042238;28;19944;-71
2022/01/02 07:11:44;;;;;;;;;;;11.50;99.90;;;;;;5028594;28;19924;-71
2022/01/02 07:14:31;;;;;;;;;;;11.50;99.90;;;;;;5028056;28;19925;-71
2022/01/02 07:17:17;;;;;;;;;;;11.50;99.90;;;;;;5014668;28;19929;-71
2022/01/02 07:20:07;;;;;;;;;;;11.50;99.90;;;;;;5031154;28;20483;-71
2022/01/02 07:22:53;;;;;;;;;;;11.60;99.90;;;;;;5028885;28;21274;-72
2022/01/02 07:25:40;;;;;;;;;;;11.50;99.90;;;;;;5026450;28;19943;-71
2022/01/02 07:28:26;;;;;;;;;;;11.50;99.90;;;;;;5029022;28;19932;-71
2022/01/02 07:31:12;;;;;;;;;;;11.50;99.90;;;;;;5028113;28;19940;-71
2022/01/02 07:33:58;;;;;;;;;;;11.50;99.90;;;;;;5027553;28;20035;-70
2022/01/02 07:36:44;;;;;;;;;;;11.50;99.90;;;;;;5026198;28;20416;-71
2022/01/02 07:39:31;;;;;;;;;;;11.50;99.90;;;;;;5024003;28;19924;-71
2022/01/02 07:42:17;;;;;;;;;;;11.50;99.90;;;;;;5023710;28;19928;-72
2022/01/02 07:45:12;;;;;;;;;;;11.40;99.90;;;;;;5019658;28;19925;-71
2022/01/02 07:47:59;;;;;;;;;;;11.40;99.90;;;;;;5026488;28;19931;-71
2022/01/02 07:50:48;;;;;;;;;;;11.50;99.90;;;;;;5037912;28;20406;-71
2022/01/02 07:53:35;;;;;;;;;;;11.40;99.90;;;;;;5022844;28;19928;-71
2022/01/02 07:56:21;;;;;;;;;;;11.40;99.90;;;;;;5024159;28;19951;-71
2022/01/02 07:59:08;;;;;;;;;;;11.40;99.90;;;;;;5020550;28;19952;-71
2022/01/02 08:01:53;;;;;;;;;;;11.40;99.90;;;;;;5046603;28;19932;-70
2022/01/02 08:04:40;;;;;;;;;;;11.30;99.90;;;;;;5028327;28;19948;-71
2022/01/02 08:07:26;;;;;;;;;;;11.30;99.90;;;;;;5027985;28;19936;-71
2022/01/02 08:10:12;;;;;;;;;;;11.30;99.90;;;;;;5028040;28;20404;-70
2022/01/02 08:12:58;;;;;;;;;;;11.20;99.90;;;;;;5028214;28;20043;-71
2022/01/02 08:15:46;;;;;;;;;;;11.20;99.90;;;;;;5026983;28;19948;-70
2022/01/02 08:18:32;;;;;;;;;;;11.10;99.90;;;;;;5028546;28;19924;-71
2022/01/02 08:21:18;;;;;;;;;;;11.10;99.90;;;;;;5027944;28;19932;-71
2022/01/02 08:24:04;;;;;;;;;;;11.00;99.90;;;;;;5027745;28;19932;-71
2022/01/02 08:26:51;;;;;;;;;;;11.00;99.90;;;;;;5029072;28;19947;-71
2022/01/02 08:29:37;;;;;;;;;;;11.00;99.90;;;;;;5030556;28;19944;-68
2022/01/02 08:32:24;;;;;;;;;;;11.00;99.90;;;;;;5028422;28;19925;-71
2022/01/02 08:35:11;;;;;;;;;;;11.00;99.90;;;;;;5008683;28;19929;-70
2022/01/02 08:37:57;;;;;;;;;;;11.10;99.90;;;;;;5005615;28;20306;-70
2022/01/02 08:40:49;;;;;;;;;;;11.10;99.90;;;;;;5052706;28;19925;-70
2022/01/02 08:43:35;;;;;;;;;;;11.00;99.90;;;;;;5047442;28;19928;-70
2022/01/02 08:46:21;;;;;;;;;;;11.00;99.90;;;;;;5026170;28;19932;-70
2022/01/02 08:49:07;;;;;;;;;;;11.10;99.90;;;;;;5017214;28;19928;-70
2022/01/02 08:51:55;;;;;;;;;;;11.00;99.90;;;;;;5015336;28;19929;-70
2022/01/02 08:54:41;;;;;;;;;;;11.10;99.90;;;;;;5014369;28;19932;-70
2022/01/02 08:57:27;;;;;;;;;;;11.10;99.90;;;;;;5024907;28;19928;-70
2022/01/02 09:00:15;;;;;;;;;;;11.10;99.90;;;;;;5026422;28;19936;-70
2022/01/02 09:03:02;;;;;;;;;;;11.20;99.90;;;;;;5014961;28;19944;-69
2022/01/02 09:05:48;;;;;;;;;;;11.20;99.90;;;;;;5046532;28;19935;-70
2022/01/02 09:08:36;;;;;;;;;;;11.30;99.90;;;;;;5012107;28;20294;-70
2022/01/02 09:11:23;;;;;;;;;;;11.30;99.90;;;;;;5016648;28;19935;-71
2022/01/02 09:14:12;;;;;;;;;;;11.30;99.90;;;;;;5009022;28;19932;-71
2022/01/02 09:16:58;;;;;;;;;;;11.30;99.90;;;;;;5025395;28;19921;-71
2022/01/02 09:19:44;;;;;;;;;;;11.30;99.90;;;;;;5022758;28;19925;-71
2022/01/02 09:22:30;;;;;;;;;;;11.30;99.90;;;;;;5048033;28;20388;-71
2022/01/02 09:25:17;;;;;;;;;;;11.30;99.90;;;;;;5013898;28;19944;-71
2022/01/02 09:28:02;;;;;;;;;;;11.30;99.90;;;;;;5005393;28;20305;-71
2022/01/02 09:30:49;;;;;;;;;;;11.30;99.90;;;;;;5005738;28;19925;-71
2022/01/02 09:33:35;;;;;;;;;;;11.30;99.90;;;;;;5004389;28;20373;-71
2022/01/02 09:36:21;;;;;;;;;;;11.30;99.90;;;;;;5032327;28;19932;-71
2022/01/02 09:39:07;;;;;;;;;;;11.30;99.90;;;;;;5006428;28;19921;-71
2022/01/02 09:41:53;;;;;;;;;;;11.30;99.90;;;;;;5017282;28;19967;-71
2022/01/02 09:44:39;;;;;;;;;;;11.40;99.90;;;;;;5026811;28;19932;-71
2022/01/02 09:47:25;;;;;;;;;;;11.40;99.90;;;;;;5025193;28;19928;-71
2022/01/02 09:50:12;;;;;;;;;;;11.40;99.90;;;;;;5022263;28;19925;-71
2022/01/02 09:52:59;;;;;;;;;;;11.40;99.90;;;;;;5005096;28;20410;-73
2022/01/02 09:55:26;;;;;;;;;;;11.50;99.90;;;;;;5036002;28;19952;-73
2022/01/02 09:57:58;;;;;;;;;;;11.50;99.90;;;;;;5003496;28;19932;-73
2022/01/02 10:00:27;;;;;;;;;;;11.60;99.90;;;;;;5037413;28;19925;-72
2022/01/02 10:02:56;;;;;;;;;;;11.70;99.90;;;;;;5006832;28;19932;-72
2022/01/02 10:05:24;;;;;;;;;;;11.70;99.90;;;;;;5011594;28;19924;-72
2022/01/02 10:07:52;;;;;;;;;;;11.70;99.90;;;;;;5023798;28;19977;-72
2022/01/02 10:10:20;;;;;;;;;;;11.70;99.90;;;;;;5018287;28;20396;-73
2022/01/02 10:12:48;;;;;;;;;;;11.70;99.90;;;;;;5025433;28;19924;-73
2022/01/02 10:15:17;;;;;;;;;;;11.70;99.90;;;;;;5026381;28;20381;-72
2022/01/02 10:17:54;;;;;;;;;;;11.80;99.90;;;;;;5025335;28;20296;-72
2022/01/02 10:20:22;;;;;;;;;;;12.00;99.90;;;;;;5024867;28;19925;-72
2022/01/02 10:23:00;;;;;;;;;;;12.30;99.90;;;;;;5024527;28;19928;-73
2022/01/02 10:25:46;;;;;;;;;;;12.60;99.90;;;;;;5022956;28;19921;-72
2022/01/02 10:28:21;;;;;;;;;;;12.80;99.90;;;;;;5023494;28;19932;-73
2022/01/02 10:30:50;;;;;;;;;;;12.80;99.90;;;;;;5023344;28;19932;-73
2022/01/02 10:33:18;;;;;;;;;;;12.70;99.90;;;;;;5028341;28;19921;-73
2022/01/02 10:35:45;;;;;;;;;;;12.60;99.90;;;;;;5018619;28;19921;-73
2022/01/02 10:38:14;;;;;;;;;;;12.50;99.90;;;;;;5008862;28;19921;-74
2022/01/02 10:40:42;;;;;;;;;;;12.40;99.90;;;;;;5011879;28;19937;-74
2022/01/02 10:43:30;;;;;;;;;;;12.40;99.90;;;;;;5030418;28;19924;-72
2022/01/02 10:45:59;;;;;;;;;;;12.60;99.90;;;;;;5030243;28;20394;-72
2022/01/02 10:48:35;;;;;;;;;;;13.10;99.90;;;;;;5029479;28;20320;-72
2022/01/02 10:51:04;;;;;;;;;;;13.50;99.90;;;;;;5028648;28;19944;-73
2022/01/02 10:53:33;;;;;;;;;;;14.00;99.90;;;;;;5029680;28;19948;-73
2022/01/02 10:56:02;;;;;;;;;;;14.50;99.90;;;;;;5028268;28;19924;-72
2022/01/02 10:58:29;;;;;;;;;;;14.90;99.90;;;;;;5028109;28;19925;-73
2022/01/02 11:01:00;;;;;;;;;;;15.30;99.90;;;;;;5029900;28;19928;-73
2022/01/02 11:03:29;;;;;;;;;;;15.50;99.90;;;;;;5061554;28;19925;-73
2022/01/02 11:05:58;;;;;;;;;;;15.50;99.90;;;;;;5024663;28;19928;-73
2022/01/02 11:08:27;;;;;;;;;;;15.30;99.90;;;;;;5043059;28;19932;-73
2022/01/02 11:10:55;;;;;;;;;;;14.90;99.90;;;;;;5025074;28;19925;-73
2022/01/02 11:13:23;;;;;;;;;;;14.60;99.90;;;;;;5040193;28;19933;-72
2022/01/02 11:15:52;;;;;;;;;;;14.20;99.90;;;;;;5023967;28;19921;-74
2022/01/02 11:18:21;;;;;;;;;;;13.80;99.90;;;;;;5040535;28;19929;-73
2022/01/02 11:20:48;;;;;;;;;;;13.50;99.90;;;;;;5008991;28;20317;-73
2022/01/02 11:23:42;;;;;;;;;;;13.20;99.90;;;;;;5040823;28;19934;-72
2022/01/02 11:26:14;;;;;;;;;;;13.00;99.90;;;;;;4989845;28;19928;-72
2022/01/02 11:29:02;;;;;;;;;;;12.80;99.90;;;;;;5040890;28;20044;-72
2022/01/02 11:31:33;;;;;;;;;;;12.60;99.90;;;;;;5019307;28;19925;-73
2022/01/02 11:34:19;;;;;;;;;;;12.50;99.90;;;;;;5021487;28;19933;-76
2022/01/02 11:36:46;;;;;;;;;;;12.50;99.90;;;;;;5027694;28;19940;-73
2022/01/02 11:39:14;;;;;;;;;;;12.40;99.90;;;;;;5027500;28;19929;-73
2022/01/02 11:41:44;;;;;;;;;;;12.40;99.90;;;;;;5039247;28;19925;-73
2022/01/02 11:44:13;;;;;;;;;;;12.40;99.90;;;;;;5023995;28;20105;-74
2022/01/02 11:46:58;;;;;;;;;;;12.40;99.90;;;;;;5040745;28;19932;-73
2022/01/02 11:49:27;;;;;;;;;;;12.40;99.90;;;;;;5027518;28;20334;-73
2022/01/02 11:51:57;;;;;;;;;;;12.40;99.90;;;;;;5036773;28;19936;-73
2022/01/02 11:54:27;;;;;;;;;;;12.40;99.90;;;;;;5028105;28;20312;-73
2022/01/02 11:56:55;;;;;;;;;;;12.50;99.90;;;;;;5021734;28;19929;-73
2022/01/02 11:59:38;;;;;;;;;;;12.60;99.90;;;;;;5036693;28;19925;-73
2022/01/02 12:02:07;;;;;;;;;;;12.70;99.90;;;;;;5007136;28;19932;-73
2022/01/02 12:04:53;;;;;;;;;;;12.70;99.90;;;;;;5007832;28;19933;-73
2022/01/02 12:07:54;;;;;;;;;;;12.70;99.90;;;;;;5021922;28;20284;-73
2022/01/02 12:10:26;;;;;;;;;;;12.70;99.90;;;;;;5006191;28;19932;-72
2022/01/02 12:13:12;;;;;;;;;;;12.60;99.90;;;;;;5008728;28;19956;-73
2022/01/02 12:15:40;;;;;;;;;;;12.60;99.90;;;;;;5007755;28;19929;-73
2022/01/02 12:18:11;;;;;;;;;;;12.60;99.90;;;;;;5026812;28;20312;-72
2022/01/02 12:21:00;;;;;;;;;;;12.70;99.90;;;;;;5013753;28;19925;-73
2022/01/02 12:23:34;;;;;;;;;;;12.90;99.90;;;;;;5007010;28;20236;-72
2022/01/02 12:26:04;;;;;;;;;;;13.00;99.90;;;;;;5007146;28;19925;-72
2022/01/02 12:28:43;;;;;;;;;;;13.10;99.90;;;;;;5006193;28;19929;-73
2022/01/02 12:31:12;;;;;;;;;;;13.10;99.90;;;;;;5010416;28;20380;-73
2022/01/02 12:33:43;;;;;;;;;;;13.10;99.90;;;;;;5028022;28;20285;-74
2022/01/02 12:36:14;;;;;;;;;;;13.00;99.90;;;;;;5025926;28;20389;-73
2022/01/02 12:38:45;;;;;;;;;;;12.90;99.90;;;;;;5027170;28;19921;-73
2022/01/02 12:41:13;;;;;;;;;;;12.90;99.90;;;;;;5026198;28;19925;-74
2022/01/02 12:44:00;;;;;;;;;;;12.70;99.90;;;;;;5026394;28;19924;-73
2022/01/02 12:46:32;;;;;;;;;;;12.70;99.90;;;;;;5014367;28;19950;-73
2022/01/02 12:49:00;;;;;;;;;;;12.70;99.90;;;;;;5009702;28;20366;-73
2022/01/02 12:51:32;;;;;;;;;;;12.70;99.90;;;;;;5024116;28;20740;-73
2022/01/02 12:54:29;;;;;;;;;;;12.80;99.90;;;;;;5027009;28;20565;-73
2022/01/02 12:56:58;;;;;;;;;;;12.70;99.90;;;;;;5007797;28;20278;-73
2022/01/02 12:59:42;;;;;;;;;;;12.80;99.90;;;;;;5030474;28;19932;-73
2022/01/02 13:02:11;;;;;;;;;;;12.70;99.90;;;;;;5022249;28;19925;-73
2022/01/02 13:04:40;;;;;;;;;;;12.70;99.90;;;;;;5024307;28;19932;-73
2022/01/02 13:07:12;;;;;;;;;;;12.70;99.90;;;;;;5038983;28;19921;-75
2022/01/02 13:09:42;;;;;;;;;;;12.80;99.90;;;;;;5008037;28;19921;-74
2022/01/02 13:12:11;;;;;;;;;;;12.80;99.90;;;;;;5004133;28;20493;-76
2022/01/02 13:14:39;;;;;;;;;;;12.80;99.90;;;;;;5024816;28;19926;-73
2022/01/02 13:17:14;;;;;;;;;;;12.90;99.90;;;;;;5043509;28;20380;-72
2022/01/02 13:19:43;;;;;;;;;;;12.90;99.90;;;;;;5020536;28;19928;-73
2022/01/02 13:22:15;;;;;;;;;;;12.80;99.90;;;;;;4992581;28;19925;-74
2022/01/02 13:24:43;;;;;;;;;;;12.70;99.90;;;;;;5021495;28;20448;-77
2022/01/02 13:27:11;;;;;;;;;;;12.50;99.90;;;;;;5006388;28;19925;-79
2022/01/02 13:29:38;;;;;;;;;;;12.40;99.90;;;;;;5017533;28;19932;-77
2022/01/02 13:32:16;;;;;;;;;;;12.30;99.90;;;;;;5015627;28;20955;-74
2022/01/02 13:34:44;;;;;;;;;;;12.20;99.90;;;;;;5016911;28;20377;-74
2022/01/02 13:37:11;;;;;;;;;;;12.10;99.90;;;;;;5019936;28;19925;-75
2022/01/02 13:39:46;;;;;;;;;;;12.00;99.90;;;;;;5008066;28;19932;-72
2022/01/02 13:42:15;;;;;;;;;;;12.00;99.90;;;;;;5015316;28;20484;-76
2022/01/02 13:44:48;;;;;;;;;;;12.00;99.90;;;;;;5038807;28;20374;-69
2022/01/02 13:47:16;;;;;;;;;;;12.10;99.90;;;;;;5025267;28;19932;-69
2022/01/02 13:49:45;;;;;;;;;;;12.00;99.90;;;;;;5026188;28;19932;-72
2022/01/02 13:52:12;;;;;;;;;;;12.00;99.90;;;;;;5025246;28;19921;-70
2022/01/02 13:54:44;;;;;;;;;;;12.00;99.90;;;;;;5026315;28;20088;-70
2022/01/02 13:57:12;;;;;;;;;;;12.00;99.90;;;;;;5025172;28;19925;-69
2022/01/02 13:59:40;;;;;;;;;;;12.00;99.90;;;;;;5026483;28;19921;-70
2022/01/02 14:02:07;;;;;;;;;;;11.90;99.90;;;;;;5026481;28;19925;-70
2022/01/02 14:04:51;;;;;;;;;;;11.90;99.90;;;;;;5037845;28;19925;-70
2022/01/02 14:07:19;;;;;;;;;;;11.90;99.90;;;;;;5004331;28;19925;-70
2022/01/02 14:09:51;;;;;;;;;;;11.90;99.90;;;;;;5006437;28;19922;-71
2022/01/02 14:12:30;;;;;;;;;;;11.90;99.90;;;;;;5037953;28;20251;-71
2022/01/02 14:15:08;;;;;;;;;;;11.90;99.90;;;;;;5006541;28;20301;-68
2022/01/02 14:17:43;;;;;;;;;;;11.80;99.90;;;;;;5015656;28;19947;-70
2022/01/02 14:20:13;;;;;;;;;;;11.90;99.90;;;;;;5024938;28;19932;-72
2022/01/02 14:22:42;;;;;;;;;;;11.90;99.90;;;;;;5025672;28;19936;-70
2022/01/02 14:25:09;;;;;;;;;;;11.90;99.90;;;;;;5026289;28;19925;-71
2022/01/02 14:27:46;;;;;;;;;;;11.90;99.90;;;;;;5026385;28;20024;-70
2022/01/02 14:30:15;;;;;;;;;;;11.80;99.90;;;;;;5026487;28;20468;-72
2022/01/02 14:32:43;;;;;;;;;;;11.70;99.90;;;;;;5026200;28;19921;-71
2022/01/02 14:35:11;;;;;;;;;;;11.60;99.90;;;;;;5021742;28;19922;-73
2022/01/02 14:37:39;;;;;;;;;;;11.60;99.90;;;;;;5005896;28;19926;-71
2022/01/02 14:40:07;;;;;;;;;;;11.50;99.90;;;;;;5006148;28;20425;-71
2022/01/02 14:42:34;;;;;;;;;;;11.50;99.90;;;;;;5037012;28;19925;-72
2022/01/02 14:45:04;;;;;;;;;;;11.40;99.90;;;;;;5023144;28;19921;-70
2022/01/02 14:47:34;;;;;;;;;;;11.40;99.90;;;;;;5022992;28;19925;-73
2022/01/02 14:50:04;;;;;;;;;;;11.40;99.90;;;;;;5024233;28;19928;-69
2022/01/02 14:52:35;;;;;;;;;;;11.30;99.90;;;;;;5006571;28;19925;-73
2022/01/02 14:55:08;;;;;;;;;;;11.30;99.90;;;;;;5023301;28;19924;-71
2022/01/02 14:57:36;;;;;;;;;;;11.30;99.90;;;;;;4998493;28;19929;-74
2022/01/02 15:00:04;;;;;;;;;;;11.30;99.90;;;;;;5009394;28;19925;-72
2022/01/02 15:02:31;;;;;;;;;;;11.20;99.90;;;;;;5003954;28;19932;-71
2022/01/02 15:04:59;;;;;;;;;;;11.20;99.90;;;;;;5043885;28;19925;-71
2022/01/02 15:07:27;;;;;;;;;;;11.20;99.90;;;;;;5005136;28;19928;-70
2022/01/02 15:09:54;;;;;;;;;;;11.20;99.90;;;;;;5036938;28;19926;-70
2022/01/02 15:12:22;;;;;;;;;;;11.10;99.90;;;;;;5036953;28;19921;-73
2022/01/02 15:14:50;;;;;;;;;;;11.10;99.90;;;;;;5021804;28;20052;-71
2022/01/02 15:17:17;;;;;;;;;;;11.00;99.90;;;;;;5025053;28;19929;-71
2022/01/02 15:19:44;;;;;;;;;;;11.00;99.90;;;;;;5029096;28;19925;-71
2022/01/02 15:22:12;;;;;;;;;;;10.90;99.90;;;;;;5022450;28;19922;-71
2022/01/02 15:24:41;;;;;;;;;;;10.80;99.90;;;;;;5009055;28;19932;-71
2022/01/02 15:27:08;;;;;;;;;;;10.80;99.90;;;;;;5024294;28;20301;-71
2022/01/02 15:29:44;;;;;;;;;;;10.70;99.90;;;;;;5028789;28;19921;-70
2022/01/02 15:32:12;;;;;;;;;;;10.70;99.90;;;;;;5028875;28;19993;-71
2022/01/02 15:34:40;;;;;;;;;;;10.60;99.90;;;;;;5028283;28;19924;-72
2022/01/02 15:37:07;;;;;;;;;;;10.60;99.90;;;;;;5028385;28;19921;-70
2022/01/02 15:39:35;;;;;;;;;;;10.60;99.90;;;;;;5028933;28;19925;-69
2022/01/02 15:42:02;;;;;;;;;;;10.50;99.90;;;;;;5043417;28;19928;-70
2022/01/02 15:44:30;;;;;;;;;;;10.50;99.90;;;;;;5028977;28;19932;-70